createdAt,value
2019-05-18T00:01:32.177Z,93.34
2019-05-18T00:03:58.861Z,93.06
2019-05-18T00:06:25.566Z,92.58
2019-05-18T00:08:52.322Z,93.05
2019-05-18T00:11:19.190Z,93.20
2019-05-18T00:13:46.258Z,93.40
2019-05-18T00:16:13.008Z,93.11
2019-05-18T00:18:40.069Z,92.78
2019-05-18T00:21:06.771Z,92.72
2019-05-18T00:23:33.506Z,92.98
2019-05-18T00:26:00.241Z,92.37
2019-05-18T00:28:27.081Z,93.05
2019-05-18T00:30:53.824Z,92.88
2019-05-18T00:33:20.543Z,92.30
2019-05-18T00:35:47.465Z,92.71
2019-05-18T00:38:14.243Z,92.81
2019-05-18T00:40:40.943Z,92.17
2019-05-18T00:43:07.727Z,91.84
2019-05-18T00:45:34.429Z,92.14
2019-05-18T00:48:02.290Z,92.71
2019-05-18T00:50:29.065Z,92.54
2019-05-18T00:52:55.816Z,92.28
2019-05-18T00:55:22.567Z,92.34
2019-05-18T00:57:49.303Z,92.20
2019-05-18T01:00:16.369Z,92.22
2019-05-18T01:02:43.063Z,92.38
2019-05-18T01:05:09.928Z,91.81
2019-05-18T01:07:36.723Z,91.88
2019-05-18T01:10:05.896Z,92.40
2019-05-18T01:12:32.668Z,92.63
2019-05-18T01:14:59.330Z,92.27
2019-05-18T01:17:26.029Z,92.06
2019-05-18T01:19:52.677Z,92.16
2019-05-18T01:22:19.367Z,92.72
2019-05-18T01:24:46.529Z,92.69
2019-05-18T01:27:13.205Z,92.23
2019-05-18T01:29:39.987Z,92.25
2019-05-18T01:32:07.024Z,93.02
2019-05-18T01:34:33.814Z,93.26
2019-05-18T01:37:00.545Z,92.82
2019-05-18T01:39:27.388Z,93.09
2019-05-18T01:41:54.081Z,93.27
2019-05-18T01:44:20.759Z,93.26
2019-05-18T01:46:47.467Z,93.12
2019-05-18T01:49:14.143Z,93.22
2019-05-18T01:51:40.842Z,93.30
2019-05-18T01:54:07.603Z,93.27
2019-05-18T01:56:34.354Z,93.30
2019-05-18T01:59:01.041Z,93.37
2019-05-18T02:01:27.760Z,93.46
2019-05-18T02:03:54.446Z,93.35
2019-05-18T02:06:21.129Z,93.57
2019-05-18T02:08:47.911Z,93.69
2019-05-18T02:11:14.588Z,93.70
2019-05-18T02:13:41.332Z,93.71
2019-05-18T02:16:08.102Z,94.01
2019-05-18T02:18:34.910Z,94.21
2019-05-18T02:21:01.966Z,94.35
2019-05-18T02:23:28.779Z,94.12
2019-05-18T02:25:55.484Z,93.75
2019-05-18T02:28:23.608Z,93.87
2019-05-18T02:30:50.340Z,93.94
2019-05-18T02:33:17.022Z,94.33
2019-05-18T02:35:43.780Z,94.32
2019-05-18T02:38:15.061Z,93.91
2019-05-18T02:40:42.207Z,94.21
2019-05-18T02:43:09.019Z,94.57
2019-05-18T02:45:36.025Z,94.96
2019-05-18T02:48:02.867Z,94.98
2019-05-18T02:50:29.593Z,95.10
2019-05-18T02:52:56.347Z,94.98
2019-05-18T02:55:23.091Z,95.09
2019-05-18T02:57:49.786Z,95.09
2019-05-18T03:00:16.723Z,95.05
2019-05-18T03:02:43.480Z,95.17
2019-05-18T03:05:10.557Z,95.27
2019-05-18T03:07:38.316Z,95.41
2019-05-18T03:10:05.762Z,95.55
2019-05-18T03:12:32.403Z,95.54
2019-05-18T03:14:59.102Z,94.79
2019-05-18T03:17:25.962Z,94.84
2019-05-18T03:19:52.804Z,94.73
2019-05-18T03:22:19.599Z,94.79
2019-05-18T03:24:46.301Z,94.79
2019-05-18T03:27:13.072Z,95.11
2019-05-18T03:29:41.104Z,95.04
2019-05-18T03:32:07.809Z,95.03
2019-05-18T03:34:34.572Z,95.22
2019-05-18T03:37:01.351Z,95.36
2019-05-18T03:39:28.093Z,95.28
2019-05-18T03:41:54.985Z,95.35
2019-05-18T03:44:21.749Z,95.31
2019-05-18T03:46:48.518Z,95.13
2019-05-18T03:49:26.006Z,94.82
2019-05-18T03:51:45.021Z,94.68
2019-05-18T03:54:11.700Z,94.75
2019-05-18T03:56:38.391Z,94.65
2019-05-18T03:59:05.257Z,94.52
2019-05-18T04:01:32.944Z,94.20
2019-05-18T04:04:00.713Z,94.22
2019-05-18T04:06:27.415Z,94.04
2019-05-18T04:08:54.246Z,93.67
2019-05-18T04:11:21.089Z,93.46
2019-05-18T04:13:47.787Z,93.16
2019-05-18T04:16:14.470Z,93.19
2019-05-18T04:18:41.299Z,93.38
2019-05-18T04:21:07.959Z,93.48
2019-05-18T04:23:34.749Z,93.12
2019-05-18T04:26:01.652Z,93.02
2019-05-18T04:28:28.458Z,92.72
2019-05-18T04:30:55.135Z,92.46
2019-05-18T04:33:22.365Z,92.72
2019-05-18T04:35:49.044Z,93.16
2019-05-18T04:38:15.820Z,93.26
2019-05-18T04:40:42.594Z,93.03
2019-05-18T04:43:09.307Z,93.24
2019-05-18T04:45:35.979Z,93.34
2019-05-18T04:48:02.875Z,93.62
2019-05-18T04:50:29.725Z,93.20
2019-05-18T04:52:56.483Z,92.67
2019-05-18T04:55:23.233Z,92.19
2019-05-18T04:57:50.049Z,91.92
2019-05-18T05:00:18.036Z,91.74
2019-05-18T05:02:44.728Z,92.19
2019-05-18T05:05:11.582Z,92.34
2019-05-18T05:07:38.440Z,92.34
2019-05-18T05:10:07.226Z,92.41
2019-05-18T05:12:33.898Z,92.45
2019-05-18T05:15:02.354Z,92.20
2019-05-18T05:17:29.123Z,92.15
2019-05-18T05:19:55.823Z,91.71
2019-05-18T05:22:22.502Z,91.98
2019-05-18T05:24:49.208Z,92.47
2019-05-18T05:27:15.975Z,91.97
2019-05-18T05:29:42.674Z,91.58
2019-05-18T05:32:09.549Z,91.27
2019-05-18T05:34:36.307Z,92.34
2019-05-18T05:37:03.250Z,93.03
2019-05-18T05:39:30.007Z,93.25
2019-05-18T05:41:57.755Z,93.13
2019-05-18T05:44:24.548Z,93.54
2019-05-18T05:46:51.310Z,92.83
2019-05-18T05:49:18.078Z,92.42
2019-05-18T05:51:44.916Z,91.48
2019-05-18T05:54:11.630Z,91.20
2019-05-18T05:56:38.304Z,90.73
2019-05-18T05:59:05.118Z,90.86
2019-05-18T06:01:31.826Z,89.70
2019-05-18T06:03:58.591Z,89.63
2019-05-18T06:06:25.363Z,88.33
2019-05-18T06:08:52.082Z,88.32
2019-05-18T06:11:18.856Z,87.21
2019-05-18T06:13:45.678Z,86.25
2019-05-18T06:16:12.505Z,86.28
2019-05-18T06:18:39.192Z,85.06
2019-05-18T06:21:06.021Z,85.84
2019-05-18T06:23:32.816Z,85.10
2019-05-18T06:25:59.602Z,82.87
2019-05-18T06:28:26.401Z,80.01
2019-05-18T06:30:54.162Z,79.79
2019-05-18T06:33:20.923Z,76.70
2019-05-18T06:35:47.703Z,75.70
2019-05-18T06:38:14.452Z,77.04
2019-05-18T06:40:41.144Z,77.93
2019-05-18T06:43:07.923Z,77.50
2019-05-18T06:45:34.930Z,77.25
2019-05-18T06:48:01.686Z,78.79
2019-05-18T06:50:29.695Z,78.62
2019-05-18T06:52:56.628Z,78.42
2019-05-18T06:55:25.065Z,76.99
2019-05-18T06:57:52.349Z,76.99
2019-05-18T07:00:19.160Z,75.75
2019-05-18T07:02:45.963Z,77.02
2019-05-18T07:05:13.015Z,78.42
2019-05-18T07:07:40.123Z,80.24
2019-05-18T07:10:06.893Z,79.04
2019-05-18T07:12:34.028Z,79.33
2019-05-18T07:15:00.788Z,80.50
2019-05-18T07:17:27.504Z,77.79
2019-05-18T07:19:54.264Z,76.50
2019-05-18T07:22:20.962Z,75.46
2019-05-18T07:24:47.688Z,76.74
2019-05-18T07:27:14.765Z,75.57
2019-05-18T07:29:42.566Z,74.81
2019-05-18T07:32:09.341Z,73.32
2019-05-18T07:34:36.136Z,74.10
2019-05-18T07:37:03.003Z,73.69
2019-05-18T07:39:29.832Z,73.85
2019-05-18T07:41:56.618Z,71.90
2019-05-18T07:44:23.393Z,69.49
2019-05-18T07:46:50.195Z,67.88
2019-05-18T07:49:16.910Z,69.54
2019-05-18T07:51:43.994Z,71.29
2019-05-18T07:54:10.822Z,72.77
2019-05-18T07:56:37.586Z,69.97
2019-05-18T07:59:04.269Z,67.99
2019-05-18T08:01:31.025Z,70.32
2019-05-18T08:03:57.717Z,73.36
2019-05-18T08:06:24.451Z,70.58
2019-05-18T08:08:51.360Z,67.60
2019-05-18T08:11:18.034Z,69.42
2019-05-18T08:13:44.747Z,70.75
2019-05-18T08:16:11.495Z,68.88
2019-05-18T08:18:38.226Z,66.80
2019-05-18T08:21:05.004Z,67.65
2019-05-18T08:23:31.927Z,71.00
2019-05-18T08:25:58.668Z,68.94
2019-05-18T08:28:26.558Z,69.60
2019-05-18T08:30:53.314Z,69.76
2019-05-18T08:33:20.033Z,64.47
2019-05-18T08:35:46.695Z,69.09
2019-05-18T08:38:13.603Z,67.43
2019-05-18T08:40:40.342Z,66.45
2019-05-18T08:43:07.033Z,66.58
2019-05-18T08:45:34.038Z,64.59
2019-05-18T08:48:00.790Z,68.13
2019-05-18T08:50:27.661Z,64.63
2019-05-18T08:52:54.492Z,64.38
2019-05-18T08:55:21.338Z,65.31
2019-05-18T08:57:48.091Z,64.67
2019-05-18T09:00:15.296Z,58.48
2019-05-18T09:02:42.062Z,59.66
2019-05-18T09:05:09.264Z,59.38
2019-05-18T09:07:36.100Z,62.91
2019-05-18T09:10:04.793Z,60.12
2019-05-18T09:12:31.575Z,65.09
2019-05-18T09:14:58.328Z,61.82
2019-05-18T09:17:25.029Z,62.18
2019-05-18T09:19:51.854Z,63.78
2019-05-18T09:22:23.305Z,61.70
2019-05-18T09:24:47.335Z,61.52
2019-05-18T09:27:14.076Z,64.25
2019-05-18T09:29:40.961Z,63.63
2019-05-18T09:32:07.763Z,57.12
2019-05-18T09:34:34.541Z,58.36
2019-05-18T09:37:01.680Z,57.68
2019-05-18T09:39:28.422Z,57.10
2019-05-18T09:41:55.134Z,62.31
2019-05-18T09:44:22.022Z,57.67
2019-05-18T09:46:48.913Z,56.09
2019-05-18T09:49:15.692Z,57.46
2019-05-18T09:51:42.652Z,53.30
2019-05-18T09:54:09.403Z,58.64
2019-05-18T09:56:36.118Z,52.67
2019-05-18T09:59:03.180Z,56.39
2019-05-18T10:01:29.950Z,56.04
2019-05-18T10:03:56.777Z,59.92
2019-05-18T10:06:23.515Z,61.47
2019-05-18T10:08:50.282Z,51.83
2019-05-18T10:11:17.019Z,55.36
2019-05-18T10:13:43.853Z,53.15
2019-05-18T10:16:10.620Z,54.47
2019-05-18T10:18:37.405Z,56.61
2019-05-18T10:21:05.296Z,58.82
2019-05-18T10:23:33.109Z,57.30
2019-05-18T10:26:01.989Z,60.07
2019-05-18T10:28:28.849Z,60.03
2019-05-18T10:30:56.772Z,60.75
2019-05-18T10:33:23.470Z,58.89
2019-05-18T10:35:50.204Z,59.46
2019-05-18T10:38:17.045Z,60.24
2019-05-18T10:40:43.757Z,61.42
2019-05-18T10:43:10.469Z,64.86
2019-05-18T10:45:38.132Z,66.71
2019-05-18T10:48:04.961Z,67.19
2019-05-18T10:50:34.610Z,71.00
2019-05-18T10:53:05.359Z,72.24
2019-05-18T10:55:38.182Z,71.83
2019-05-18T10:58:09.601Z,76.01
2019-05-18T11:00:46.841Z,79.82
2019-05-18T11:03:14.396Z,77.14
2019-05-18T11:05:41.078Z,75.23
2019-05-18T11:08:07.857Z,67.80
2019-05-18T11:10:34.533Z,65.55
2019-05-18T11:13:01.227Z,71.01
2019-05-18T11:15:28.025Z,67.03
2019-05-18T11:17:54.708Z,62.55
2019-05-18T11:20:22.019Z,59.99
2019-05-18T11:22:48.773Z,60.21
2019-05-18T11:25:15.543Z,59.36
2019-05-18T11:27:42.234Z,55.50
2019-05-18T11:30:11.372Z,66.07
2019-05-18T11:32:38.254Z,69.22
2019-05-18T11:35:05.984Z,62.95
2019-05-18T11:37:32.820Z,66.19
2019-05-18T11:40:00.511Z,61.99
2019-05-18T11:42:27.194Z,61.59
2019-05-18T11:44:53.919Z,63.58
2019-05-18T11:47:20.606Z,66.62
2019-05-18T11:49:47.305Z,66.19
2019-05-18T11:52:14.018Z,60.07
2019-05-18T11:54:40.718Z,63.74
2019-05-18T11:57:07.560Z,61.71
2019-05-18T11:59:34.336Z,60.92
2019-05-18T12:02:01.031Z,59.84
2019-05-18T12:04:27.805Z,57.35
2019-05-18T12:06:54.591Z,61.25
2019-05-18T12:09:21.340Z,60.55
2019-05-18T12:11:48.192Z,60.15
2019-05-18T12:14:14.974Z,67.50
2019-05-18T12:16:41.661Z,72.19
2019-05-18T12:19:08.496Z,69.77
2019-05-18T12:21:35.172Z,62.48
2019-05-18T12:24:14.940Z,61.54
2019-05-18T12:26:30.532Z,57.43
2019-05-18T12:28:57.341Z,55.30
2019-05-18T12:31:24.304Z,55.40
2019-05-18T12:33:51.143Z,56.68
2019-05-18T12:36:18.003Z,57.70
2019-05-18T12:38:44.734Z,56.74
2019-05-18T12:41:11.653Z,61.01
2019-05-18T12:43:38.359Z,56.39
2019-05-18T12:46:05.074Z,56.60
2019-05-18T12:48:31.911Z,54.13
2019-05-18T12:50:58.591Z,54.65
2019-05-18T12:53:25.404Z,56.79
2019-05-18T12:55:52.150Z,58.44
2019-05-18T12:58:18.881Z,63.54
2019-05-18T13:00:45.747Z,64.10
2019-05-18T13:03:12.700Z,64.37
2019-05-18T13:05:39.473Z,61.71
2019-05-18T13:08:06.343Z,63.94
2019-05-18T13:10:33.244Z,65.54
2019-05-18T13:13:00.109Z,62.91
2019-05-18T13:15:27.084Z,61.94
2019-05-18T13:17:53.836Z,57.45
2019-05-18T13:20:21.019Z,61.11
2019-05-18T13:22:47.788Z,56.45
2019-05-18T13:25:15.283Z,54.92
2019-05-18T13:27:42.028Z,60.86
2019-05-18T13:30:11.270Z,55.61
2019-05-18T13:32:38.084Z,57.23
2019-05-18T13:35:06.299Z,54.60
2019-05-18T13:37:33.132Z,53.78
2019-05-18T13:39:59.884Z,56.37
2019-05-18T13:42:26.666Z,53.62
2019-05-18T13:44:53.494Z,52.98
2019-05-18T13:47:20.171Z,54.29
2019-05-18T13:49:46.859Z,56.33
2019-05-18T13:52:13.706Z,54.51
2019-05-18T13:54:40.542Z,53.10
2019-05-18T13:57:08.255Z,53.91
2019-05-18T13:59:35.043Z,53.79
2019-05-18T14:02:01.844Z,53.70
2019-05-18T14:04:28.918Z,55.06
2019-05-18T14:06:55.576Z,55.99
2019-05-18T14:09:22.275Z,52.26
2019-05-18T14:11:49.039Z,52.24
2019-05-18T14:14:15.765Z,52.82
2019-05-18T14:16:42.444Z,53.24
2019-05-18T14:19:09.129Z,51.96
2019-05-18T14:21:35.874Z,54.04
2019-05-18T14:24:03.052Z,52.15
2019-05-18T14:26:29.735Z,53.09
2019-05-18T14:28:56.430Z,56.75
2019-05-18T14:31:23.112Z,54.93
2019-05-18T14:33:49.860Z,55.64
2019-05-18T14:36:16.626Z,52.97
2019-05-18T14:38:43.392Z,52.72
2019-05-18T14:41:11.131Z,51.88
2019-05-18T14:43:37.928Z,52.20
2019-05-18T14:46:04.597Z,52.69
2019-05-18T14:48:31.379Z,53.69
2019-05-18T14:50:58.093Z,56.62
2019-05-18T14:53:24.799Z,57.56
2019-05-18T14:55:51.550Z,54.92
2019-05-18T14:58:18.214Z,58.31
2019-05-18T15:00:44.901Z,62.19
2019-05-18T15:03:11.731Z,57.58
2019-05-18T15:05:38.888Z,57.45
2019-05-18T15:08:05.781Z,62.15
2019-05-18T15:10:32.542Z,58.56
2019-05-18T15:12:59.291Z,56.48
2019-05-18T15:15:25.988Z,57.26
2019-05-18T15:17:52.806Z,60.45
2019-05-18T15:20:19.591Z,57.86
2019-05-18T15:22:46.282Z,57.52
2019-05-18T15:25:13.963Z,56.62
2019-05-18T15:27:40.662Z,57.12
2019-05-18T15:30:08.162Z,55.74
2019-05-18T15:32:34.909Z,59.91
2019-05-18T15:35:01.690Z,58.64
2019-05-18T15:37:29.382Z,58.59
2019-05-18T15:39:56.115Z,61.10
2019-05-18T15:42:22.880Z,64.27
2019-05-18T15:44:49.878Z,63.70
2019-05-18T15:47:16.621Z,61.88
2019-05-18T15:49:43.469Z,65.16
2019-05-18T15:52:10.467Z,62.52
2019-05-18T15:54:37.220Z,61.14
2019-05-18T15:57:04.014Z,63.60
2019-05-18T15:59:30.674Z,62.41
2019-05-18T16:01:57.526Z,62.07
2019-05-18T16:04:24.451Z,60.26
2019-05-18T16:06:51.259Z,60.33
2019-05-18T16:09:18.944Z,64.98
2019-05-18T16:11:45.788Z,64.01
2019-05-18T16:14:12.488Z,62.26
2019-05-18T16:16:39.283Z,64.74
2019-05-18T16:19:06.016Z,65.18
2019-05-18T16:21:32.747Z,64.97
2019-05-18T16:23:59.503Z,66.35
2019-05-18T16:26:26.502Z,67.25
2019-05-18T16:28:53.180Z,66.03
2019-05-18T16:31:20.246Z,68.25
2019-05-18T16:33:46.960Z,69.52
2019-05-18T16:36:13.651Z,68.47
2019-05-18T16:38:40.622Z,67.34
2019-05-18T16:41:07.444Z,66.98
2019-05-18T16:43:34.217Z,67.40
2019-05-18T16:46:00.994Z,69.41
2019-05-18T16:48:27.686Z,67.77
2019-05-18T16:50:54.497Z,69.38
2019-05-18T16:53:21.209Z,71.76
2019-05-18T16:55:47.931Z,71.43
2019-05-18T16:58:14.688Z,73.13
2019-05-18T17:00:41.463Z,73.00
2019-05-18T17:03:08.397Z,72.45
2019-05-18T17:05:35.145Z,73.96
2019-05-18T17:08:01.882Z,73.96
2019-05-18T17:10:28.631Z,74.36
2019-05-18T17:12:55.399Z,73.73
2019-05-18T17:15:24.859Z,75.61
2019-05-18T17:17:51.731Z,75.91
2019-05-18T17:20:19.018Z,76.02
2019-05-18T17:22:45.952Z,76.20
2019-05-18T17:25:12.713Z,76.73
2019-05-18T17:27:39.880Z,78.64
2019-05-18T17:30:07.958Z,77.70
2019-05-18T17:32:34.722Z,78.25
2019-05-18T17:35:01.397Z,78.63
2019-05-18T17:37:28.262Z,79.24
2019-05-18T17:39:55.073Z,79.41
2019-05-18T17:42:21.765Z,79.88
2019-05-18T17:44:48.683Z,80.29
2019-05-18T17:47:15.448Z,80.48
2019-05-18T17:49:42.195Z,80.65
2019-05-18T17:52:08.941Z,81.08
2019-05-18T17:54:35.737Z,81.90
2019-05-18T17:57:08.450Z,82.01
2019-05-18T17:59:31.225Z,81.79
2019-05-18T18:01:58.332Z,82.69
2019-05-18T18:04:25.200Z,82.69
2019-05-18T18:06:51.985Z,82.81
2019-05-18T18:09:18.888Z,83.19
2019-05-18T18:11:45.805Z,83.19
2019-05-18T18:14:12.569Z,83.96
2019-05-18T18:16:39.410Z,83.99
2019-05-18T18:19:06.291Z,83.99
2019-05-18T18:21:33.474Z,84.17
2019-05-18T18:24:00.249Z,84.48
2019-05-18T18:26:27.037Z,84.04
2019-05-18T18:28:54.115Z,84.02
2019-05-18T18:31:21.912Z,84.39
2019-05-18T18:33:48.605Z,84.90
2019-05-18T18:36:15.425Z,84.44
2019-05-18T18:38:42.191Z,84.68
2019-05-18T18:41:08.891Z,85.01
2019-05-18T18:43:35.669Z,85.17
2019-05-18T18:46:02.682Z,84.95
2019-05-18T18:48:29.621Z,85.24
2019-05-18T18:50:56.494Z,85.45
2019-05-18T18:53:23.286Z,85.40
2019-05-18T18:55:50.988Z,85.79
2019-05-18T18:58:17.748Z,85.39
2019-05-18T19:00:44.783Z,85.74
2019-05-18T19:03:11.490Z,86.28
2019-05-18T19:05:38.251Z,86.55
2019-05-18T19:08:05.228Z,86.81
2019-05-18T19:10:31.982Z,86.92
2019-05-18T19:12:58.714Z,86.94
2019-05-18T19:15:25.478Z,87.19
2019-05-18T19:17:52.247Z,87.43
2019-05-18T19:20:19.232Z,87.40
2019-05-18T19:22:45.928Z,87.29
2019-05-18T19:25:13.379Z,87.13
2019-05-18T19:27:52.726Z,87.00
2019-05-18T19:30:10.243Z,87.21
2019-05-18T19:32:37.409Z,87.27
2019-05-18T19:35:06.811Z,87.20
2019-05-18T19:37:33.538Z,87.28
2019-05-18T19:40:00.272Z,87.12
2019-05-18T19:42:27.123Z,87.20
2019-05-18T19:44:53.843Z,87.21
2019-05-18T19:47:20.536Z,87.46
2019-05-18T19:49:47.371Z,87.10
2019-05-18T19:52:14.090Z,87.08
2019-05-18T19:54:40.806Z,87.44
2019-05-18T19:57:07.624Z,87.27
2019-05-18T19:59:34.512Z,86.98
2019-05-18T20:02:01.367Z,87.33
2019-05-18T20:04:29.051Z,87.39
2019-05-18T20:06:55.943Z,87.83
2019-05-18T20:09:22.787Z,88.52
2019-05-18T20:11:49.469Z,88.26
2019-05-18T20:14:16.150Z,88.14
2019-05-18T20:16:42.930Z,88.03
2019-05-18T20:19:09.701Z,88.06
2019-05-18T20:21:36.438Z,87.75
2019-05-18T20:24:03.375Z,88.07
2019-05-18T20:26:30.186Z,88.35
2019-05-18T20:28:56.948Z,88.90
2019-05-18T20:31:23.765Z,89.02
2019-05-18T20:33:50.433Z,89.39
2019-05-18T20:36:17.145Z,89.47
2019-05-18T20:38:43.969Z,88.95
2019-05-18T20:41:10.748Z,88.42
2019-05-18T20:43:37.532Z,88.78
2019-05-18T20:46:04.279Z,88.93
2019-05-18T20:48:30.948Z,88.93
2019-05-18T20:50:57.697Z,89.04
2019-05-18T20:53:24.551Z,87.98
2019-05-18T20:55:51.307Z,87.26
2019-05-18T20:58:17.978Z,87.72
2019-05-18T21:00:45.008Z,87.69
2019-05-18T21:03:11.775Z,87.71
2019-05-18T21:05:38.521Z,87.25
2019-05-18T21:08:05.480Z,87.05
2019-05-18T21:10:32.337Z,87.61
2019-05-18T21:12:59.101Z,87.47
2019-05-18T21:15:25.880Z,87.71
2019-05-18T21:17:52.576Z,88.33
2019-05-18T21:20:19.248Z,88.47
2019-05-18T21:22:46.007Z,88.68
2019-05-18T21:25:12.775Z,89.21
2019-05-18T21:27:39.497Z,89.39
2019-05-18T21:30:06.681Z,88.96
2019-05-18T21:32:33.376Z,89.12
2019-05-18T21:35:00.087Z,89.03
2019-05-18T21:37:26.844Z,88.78
2019-05-18T21:39:53.521Z,88.83
2019-05-18T21:42:20.230Z,88.92
2019-05-18T21:44:47.076Z,88.26
2019-05-18T21:47:13.756Z,88.40
2019-05-18T21:49:40.524Z,87.84
2019-05-18T21:52:07.360Z,88.37
2019-05-18T21:54:34.080Z,88.92
2019-05-18T21:57:01.781Z,89.15
2019-05-18T21:59:28.550Z,88.90
2019-05-18T22:01:55.287Z,88.88
2019-05-18T22:04:23.043Z,88.92
2019-05-18T22:06:49.869Z,89.03
2019-05-18T22:09:16.609Z,88.81
2019-05-18T22:11:43.330Z,88.90
2019-05-18T22:14:10.241Z,88.84
2019-05-18T22:16:36.937Z,89.14
2019-05-18T22:19:04.793Z,89.39
2019-05-18T22:21:31.554Z,89.29
2019-05-18T22:23:58.328Z,89.51
2019-05-18T22:26:25.085Z,89.58
2019-05-18T22:28:51.812Z,89.33
2019-05-18T22:31:19.718Z,89.43
2019-05-18T22:33:46.742Z,89.42
2019-05-18T22:36:13.615Z,89.55
2019-05-18T22:38:40.325Z,89.42
2019-05-18T22:41:06.997Z,89.42
2019-05-18T22:43:33.853Z,89.37
2019-05-18T22:46:00.745Z,89.55
2019-05-18T22:48:40.312Z,90.10
2019-05-18T22:50:56.148Z,90.11
2019-05-18T22:53:22.821Z,89.58
2019-05-18T22:55:49.821Z,89.94
2019-05-18T22:58:16.900Z,89.86
2019-05-18T23:00:43.583Z,90.06
2019-05-18T23:03:10.354Z,90.05
2019-05-18T23:05:37.208Z,90.08
2019-05-18T23:08:04.110Z,89.76
2019-05-18T23:10:30.810Z,89.58
2019-05-18T23:12:57.649Z,89.63
2019-05-18T23:15:24.542Z,89.60
2019-05-18T23:17:51.466Z,89.38
2019-05-18T23:20:18.308Z,89.35
2019-05-18T23:22:45.044Z,88.81
2019-05-18T23:25:12.003Z,88.52
2019-05-18T23:27:38.762Z,88.54
2019-05-18T23:30:06.592Z,88.88
2019-05-18T23:32:33.262Z,89.02
2019-05-18T23:34:59.995Z,88.90
2019-05-18T23:37:26.688Z,88.93
2019-05-18T23:39:53.439Z,88.63
2019-05-18T23:42:20.286Z,89.07
2019-05-18T23:44:46.980Z,89.24
2019-05-18T23:47:13.834Z,89.61
2019-05-18T23:49:40.691Z,89.38
2019-05-18T23:52:07.377Z,89.54
2019-05-18T23:54:34.147Z,88.96
2019-05-18T23:57:00.887Z,88.63
2019-05-18T23:59:27.611Z,88.52
